createdAt,value
2022-11-17T00:01:27.282Z,9.02
2022-11-17T00:03:57.429Z,9.02
2022-11-17T00:06:26.151Z,10.35
2022-11-17T00:08:55.166Z,8.98
2022-11-17T00:11:24.097Z,11.27
2022-11-17T00:14:10.613Z,9.90
2022-11-17T00:16:39.387Z,11.25
2022-11-17T00:19:27.654Z,11.15
2022-11-17T00:21:56.441Z,10.95
2022-11-17T00:24:25.225Z,13.07
2022-11-17T00:27:02.794Z,11.75
2022-11-17T00:29:32.214Z,11.90
2022-11-17T00:32:18.714Z,11.98
2022-11-17T00:34:49.030Z,11.13
2022-11-17T00:37:18.142Z,9.35
2022-11-17T00:39:47.047Z,10.65
2022-11-17T00:42:15.734Z,11.57
2022-11-17T00:44:44.511Z,11.57
2022-11-17T00:47:13.588Z,13.55
2022-11-17T00:49:42.294Z,14.40
2022-11-17T00:52:12.416Z,13.18
2022-11-17T00:54:41.413Z,13.77
2022-11-17T00:57:10.157Z,12.85
2022-11-17T00:59:39.135Z,14.35
2022-11-17T01:02:07.980Z,14.95
2022-11-17T01:04:36.846Z,16.33
2022-11-17T01:07:05.914Z,12.45
2022-11-17T01:09:36.458Z,16.02
2022-11-17T01:12:05.617Z,15.20
2022-11-17T01:14:34.472Z,15.13
2022-11-17T01:17:03.374Z,15.50
2022-11-17T01:19:32.497Z,14.38
2022-11-17T01:22:01.939Z,14.73
2022-11-17T01:24:30.994Z,16.05
2022-11-17T01:27:01.757Z,11.85
2022-11-17T01:29:30.634Z,14.68
2022-11-17T01:32:00.204Z,14.07
2022-11-17T01:34:29.304Z,14.18
2022-11-17T01:37:15.821Z,15.02
2022-11-17T01:39:45.530Z,14.90
2022-11-17T01:42:18.870Z,13.57
2022-11-17T01:45:00.260Z,13.50
2022-11-17T01:47:39.067Z,14.82
2022-11-17T01:50:20.513Z,12.85
2022-11-17T01:52:51.933Z,13.27
2022-11-17T01:55:23.303Z,12.85
2022-11-17T01:57:59.623Z,12.73
2022-11-17T02:00:30.100Z,14.40
2022-11-17T02:03:00.170Z,17.95
2022-11-17T02:05:41.446Z,16.58
2022-11-17T02:08:12.073Z,13.05
2022-11-17T02:10:42.438Z,15.45
2022-11-17T02:13:15.176Z,13.65
2022-11-17T02:15:44.235Z,13.25
2022-11-17T02:18:13.454Z,14.70
2022-11-17T02:20:54.777Z,15.65
2022-11-17T02:23:54.067Z,15.02
2022-11-17T02:26:41.849Z,15.85
2022-11-17T02:29:21.773Z,15.07
2022-11-17T02:31:59.357Z,14.65
2022-11-17T02:34:36.743Z,19.25
2022-11-17T02:37:12.822Z,15.60
2022-11-17T02:39:48.309Z,15.50
2022-11-17T02:42:45.532Z,14.88
2022-11-17T02:45:20.270Z,15.02
2022-11-17T02:47:51.803Z,16.52
2022-11-17T02:50:28.270Z,16.50
2022-11-17T02:52:58.093Z,14.82
2022-11-17T02:55:27.772Z,17.63
2022-11-17T02:57:56.677Z,14.60
2022-11-17T03:00:28.656Z,16.02
2022-11-17T03:03:12.191Z,13.98
2022-11-17T03:05:54.289Z,15.93
2022-11-17T03:08:33.283Z,14.95
2022-11-17T03:11:05.343Z,14.98
2022-11-17T03:13:45.458Z,15.70
2022-11-17T03:16:26.397Z,15.27
2022-11-17T03:19:05.358Z,17.77
2022-11-17T03:21:41.389Z,15.95
2022-11-17T03:24:18.136Z,16.33
2022-11-17T03:26:51.753Z,17.55
2022-11-17T03:29:25.149Z,16.88
2022-11-17T03:32:00.103Z,17.25
2022-11-17T03:34:33.163Z,15.45
2022-11-17T03:37:05.859Z,17.10
2022-11-17T03:39:37.311Z,15.80
2022-11-17T03:42:11.819Z,13.80
2022-11-17T03:44:44.775Z,16.48
2022-11-17T03:47:19.877Z,18.08
2022-11-17T03:49:56.466Z,16.88
2022-11-17T03:52:25.949Z,15.63
2022-11-17T03:54:55.573Z,15.25
2022-11-17T03:57:33.257Z,17.80
2022-11-17T04:00:05.311Z,16.42
2022-11-17T04:02:46.031Z,17.60
2022-11-17T04:07:45.999Z,14.07
2022-11-17T04:10:16.425Z,15.85
2022-11-17T04:13:03.175Z,15.55
2022-11-17T04:15:50.190Z,17.50
2022-11-17T04:18:21.413Z,12.70
2022-11-17T04:20:51.328Z,17.00
2022-11-17T04:23:20.750Z,19.02
2022-11-17T04:26:09.331Z,15.27
2022-11-17T04:28:41.187Z,15.32
2022-11-17T04:31:13.314Z,18.83
2022-11-17T04:33:45.429Z,17.73
2022-11-17T04:36:17.318Z,21.27
2022-11-17T04:38:48.568Z,19.42
2022-11-17T04:41:36.774Z,21.73
2022-11-17T04:44:07.542Z,22.25
2022-11-17T04:46:38.605Z,21.23
2022-11-17T04:49:09.624Z,20.60
2022-11-17T04:51:39.440Z,21.98
2022-11-17T04:54:09.996Z,22.85
2022-11-17T04:56:39.894Z,21.20
2022-11-17T04:59:09.654Z,19.20
2022-11-17T05:01:39.541Z,22.73
2022-11-17T05:04:13.494Z,24.27
2022-11-17T05:06:44.670Z,22.42
2022-11-17T05:09:15.262Z,25.05
2022-11-17T05:12:03.043Z,20.08
2022-11-17T05:14:32.472Z,24.42
2022-11-17T05:17:10.103Z,23.20
2022-11-17T05:19:44.266Z,23.95
2022-11-17T05:22:35.247Z,23.65
2022-11-17T05:25:04.778Z,20.20
2022-11-17T05:27:34.981Z,25.25
2022-11-17T05:30:05.207Z,25.92
2022-11-17T05:32:34.408Z,27.98
2022-11-17T05:35:05.244Z,28.65
2022-11-17T05:37:34.668Z,25.73
2022-11-17T05:40:05.292Z,22.45
2022-11-17T05:42:36.266Z,25.42
2022-11-17T05:45:06.644Z,24.70
2022-11-17T05:47:35.514Z,24.77
2022-11-17T05:50:06.764Z,23.38
2022-11-17T05:52:37.175Z,24.88
2022-11-17T05:55:11.730Z,27.33
2022-11-17T05:57:43.281Z,25.33
2022-11-17T06:00:15.350Z,25.67
2022-11-17T06:02:48.863Z,24.33
2022-11-17T06:05:20.591Z,24.58
2022-11-17T06:07:51.125Z,24.73
2022-11-17T06:10:20.542Z,21.73
2022-11-17T06:12:49.978Z,26.25
2022-11-17T06:15:19.524Z,22.73
2022-11-17T06:17:54.583Z,25.75
2022-11-17T06:20:28.234Z,22.85
2022-11-17T06:23:02.286Z,22.88
2022-11-17T06:25:33.740Z,24.73
2022-11-17T06:28:07.798Z,20.80
2022-11-17T06:30:40.206Z,22.98
2022-11-17T06:33:13.543Z,26.20
2022-11-17T06:35:45.868Z,22.67
2022-11-17T06:38:16.263Z,23.33
2022-11-17T06:40:46.291Z,21.38
2022-11-17T06:43:19.677Z,26.33
2022-11-17T06:45:49.165Z,23.00
2022-11-17T06:48:25.305Z,26.38
2022-11-17T06:50:56.613Z,26.80
2022-11-17T06:53:26.793Z,25.20
2022-11-17T06:56:05.620Z,27.10
2022-11-17T06:58:36.005Z,22.55
2022-11-17T10:24:09.881Z,20.83
2022-11-17T10:26:47.807Z,23.42
2022-11-17T10:29:23.994Z,19.83
2022-11-17T10:31:52.797Z,17.80
2022-11-17T10:34:38.928Z,21.95
2022-11-17T10:37:26.525Z,20.92
2022-11-17T10:40:19.250Z,20.63
2022-11-17T10:43:06.561Z,23.70
2022-11-17T10:45:40.181Z,20.13
2022-11-17T10:48:17.957Z,21.55
2022-11-17T10:50:53.661Z,23.92
2022-11-17T10:53:25.795Z,22.15
2022-11-17T10:55:59.112Z,17.58
2022-11-17T10:58:30.013Z,18.63
2022-11-17T11:01:01.042Z,19.08
2022-11-17T11:03:32.172Z,20.92
2022-11-17T11:06:04.282Z,18.70
2022-11-17T11:08:45.893Z,20.60
2022-11-17T11:11:22.811Z,18.10
2022-11-17T11:13:57.444Z,18.35
2022-11-17T11:16:27.678Z,19.23
2022-11-17T11:18:56.481Z,18.95
2022-11-17T11:21:46.779Z,17.90
2022-11-17T11:24:24.727Z,18.73
2022-11-17T11:27:06.951Z,21.85
2022-11-17T11:29:53.376Z,14.77
2022-11-17T11:32:31.184Z,18.08
2022-11-17T11:35:31.212Z,17.27
2022-11-17T11:38:13.479Z,18.88
2022-11-17T11:40:44.904Z,20.63
2022-11-17T11:43:31.853Z,21.13
2022-11-17T11:46:09.500Z,20.42
2022-11-17T11:48:42.055Z,19.80
2022-11-17T11:51:18.797Z,18.20
2022-11-17T11:53:53.915Z,17.27
2022-11-17T11:56:29.923Z,18.88
2022-11-17T11:59:03.852Z,16.42
2022-11-17T12:04:27.801Z,17.20
2022-11-17T12:07:11.265Z,17.35
2022-11-17T12:09:58.745Z,17.25
2022-11-17T12:12:32.887Z,16.23
2022-11-17T12:15:12.273Z,13.93
2022-11-17T12:17:59.761Z,19.20
2022-11-17T12:21:01.219Z,18.25
2022-11-17T12:23:55.669Z,16.75
2022-11-17T12:26:28.718Z,15.90
2022-11-17T12:29:29.248Z,16.53
2022-11-17T12:32:03.720Z,17.20
2022-11-17T12:34:37.382Z,17.90
2022-11-17T12:40:00.804Z,15.02
2022-11-17T12:42:30.993Z,18.55
2022-11-17T12:45:01.644Z,15.68
2022-11-17T12:47:35.110Z,16.65
2022-11-17T12:50:39.790Z,17.02
2022-11-17T12:53:41.619Z,18.65
2022-11-17T12:56:24.616Z,16.42
2022-11-17T12:59:05.387Z,15.57
2022-11-17T13:01:43.437Z,16.85
2022-11-17T16:07:01.695Z,20.25
2022-11-17T16:09:35.957Z,16.80
2022-11-17T16:12:08.041Z,19.30
2022-11-17T16:14:40.503Z,16.02
2022-11-17T16:17:24.447Z,15.07
2022-11-17T16:22:29.149Z,14.65
2022-11-17T16:24:58.697Z,19.70
2022-11-17T16:27:30.974Z,18.67
2022-11-17T16:30:01.572Z,15.88
2022-11-17T16:32:32.641Z,16.48
2022-11-17T16:35:04.494Z,15.07
2022-11-17T16:37:35.654Z,19.08
2022-11-17T16:40:06.140Z,16.55
2022-11-17T16:42:37.829Z,16.63
2022-11-17T16:45:09.268Z,15.88
2022-11-17T16:47:39.456Z,18.27
2022-11-17T16:50:12.117Z,14.40
2022-11-17T16:52:53.115Z,16.00
2022-11-17T16:55:22.380Z,15.40
2022-11-17T16:57:52.195Z,19.02
2022-11-17T17:00:22.064Z,14.57
2022-11-17T17:02:53.198Z,15.30
2022-11-17T17:05:29.721Z,16.85
2022-11-17T17:08:00.970Z,17.95
2022-11-17T17:10:30.648Z,13.75
2022-11-17T17:13:00.796Z,16.25
2022-11-17T17:15:32.081Z,12.48
2022-11-17T17:18:06.156Z,15.65
2022-11-17T17:20:53.317Z,15.32
2022-11-17T17:23:28.993Z,15.68
2022-11-17T17:26:03.033Z,12.60
2022-11-17T17:28:36.052Z,13.13
2022-11-17T17:31:06.492Z,14.07
2022-11-17T17:33:39.991Z,15.80
2022-11-17T17:36:17.388Z,18.10
2022-11-17T17:38:53.616Z,15.10
2022-11-17T17:41:29.182Z,15.55
2022-11-17T17:46:32.737Z,14.35
2022-11-17T17:49:03.118Z,13.38
2022-11-17T17:51:40.342Z,15.73
2022-11-17T17:54:18.643Z,15.52
2022-11-17T17:56:49.124Z,14.40
2022-11-17T17:59:19.432Z,20.15
2022-11-17T18:01:54.598Z,11.63
2022-11-17T18:04:24.744Z,13.10
2022-11-17T18:06:56.070Z,15.25
2022-11-17T18:09:31.098Z,11.65
2022-11-17T18:12:01.662Z,14.00
2022-11-17T18:15:00.292Z,15.25
2022-11-17T18:17:30.551Z,12.30
2022-11-17T18:19:59.822Z,13.98
2022-11-17T18:22:29.152Z,13.57
2022-11-17T18:25:03.748Z,17.50
2022-11-17T18:27:35.949Z,12.68
2022-11-17T18:30:09.131Z,13.55
2022-11-17T18:32:43.759Z,16.33
2022-11-17T18:35:13.335Z,14.20
2022-11-17T18:37:42.691Z,11.57
2022-11-17T18:40:14.956Z,15.35
2022-11-17T18:42:44.836Z,14.68
2022-11-17T18:45:17.721Z,15.52
2022-11-17T18:47:48.267Z,15.55
2022-11-17T18:50:18.521Z,14.93
2022-11-17T18:52:48.900Z,11.80
2022-11-17T18:55:19.830Z,11.80
2022-11-17T18:57:49.375Z,13.98
2022-11-17T19:00:20.139Z,14.10
2022-11-17T19:02:50.239Z,11.10
2022-11-17T19:05:25.204Z,11.60
2022-11-17T19:08:05.076Z,11.63
2022-11-17T19:10:59.795Z,11.40
2022-11-17T19:13:34.608Z,10.63
2022-11-17T20:40:45.389Z,11.20
2022-11-17T20:43:14.366Z,12.07
2022-11-17T20:45:43.306Z,16.98
2022-11-17T20:48:12.188Z,12.57
2022-11-17T20:50:41.194Z,12.75
2022-11-17T20:53:10.074Z,10.27
2022-11-17T20:55:39.012Z,9.95
2022-11-17T20:58:09.234Z,10.05
2022-11-17T21:00:38.272Z,9.60
2022-11-17T21:03:08.414Z,11.80
2022-11-17T21:05:40.736Z,9.48
2022-11-17T21:08:10.190Z,11.80
2022-11-17T21:10:39.415Z,11.23
2022-11-17T21:13:09.809Z,9.57
2022-11-17T21:15:38.838Z,9.60
2022-11-17T21:18:26.159Z,10.07
2022-11-17T21:20:57.381Z,8.45
2022-11-17T21:23:26.355Z,9.65
2022-11-17T21:25:55.969Z,11.05
2022-11-17T21:28:30.792Z,8.93
2022-11-17T21:31:05.818Z,10.30
2022-11-17T21:33:35.026Z,10.10
2022-11-17T21:36:06.535Z,11.32
2022-11-17T21:38:35.618Z,11.63
2022-11-17T21:41:07.968Z,14.82
2022-11-17T21:43:44.448Z,9.10
2022-11-17T21:46:17.179Z,9.82
2022-11-17T21:48:47.595Z,8.80
2022-11-17T21:51:20.147Z,12.82
2022-11-17T21:53:54.155Z,10.38
2022-11-17T21:56:26.713Z,9.95
2022-11-17T21:58:58.823Z,8.73
2022-11-17T22:01:30.319Z,8.95
2022-11-17T22:04:00.458Z,9.38
2022-11-17T22:06:30.437Z,8.85
2022-11-17T22:09:01.074Z,10.25
2022-11-17T22:11:38.110Z,11.38
2022-11-17T22:14:11.152Z,7.35
2022-11-17T22:16:42.797Z,10.00
2022-11-17T22:19:13.365Z,9.18
2022-11-17T22:21:44.098Z,10.68
2022-11-17T22:24:14.794Z,8.43
2022-11-17T22:26:46.316Z,9.38
2022-11-17T22:29:19.920Z,7.75
2022-11-17T22:31:50.962Z,12.10
2022-11-17T22:34:21.556Z,7.00
2022-11-17T22:36:50.958Z,8.93
2022-11-17T22:40:12.322Z,8.30
2022-11-17T22:42:41.837Z,8.25
2022-11-17T22:45:13.088Z,7.57
2022-11-17T22:47:43.817Z,8.93
2022-11-17T22:53:55.436Z,9.52
2022-11-17T22:56:25.660Z,8.57
2022-11-17T22:58:59.644Z,8.88
2022-11-17T23:01:31.120Z,9.05
2022-11-17T23:04:00.452Z,8.95
2022-11-17T23:06:30.606Z,15.45
2022-11-17T23:09:00.974Z,8.93
2022-11-17T23:11:37.063Z,12.32
2022-11-17T23:14:08.089Z,7.90
2022-11-17T23:16:39.596Z,6.65
2022-11-17T23:19:12.452Z,8.57
2022-11-17T23:21:42.218Z,7.83
2022-11-17T23:24:13.126Z,7.22
2022-11-17T23:26:43.166Z,7.82
2022-11-17T23:29:12.251Z,7.85
2022-11-17T23:31:42.798Z,9.57
2022-11-17T23:34:12.167Z,8.43
2022-11-17T23:36:41.283Z,7.82
2022-11-17T23:39:10.687Z,6.82
2022-11-17T23:41:39.796Z,9.40
2022-11-17T23:44:08.755Z,10.45
2022-11-17T23:46:38.002Z,8.18
2022-11-17T23:49:08.504Z,9.25
2022-11-17T23:51:37.342Z,7.20
2022-11-17T23:54:06.594Z,9.00
2022-11-17T23:56:35.910Z,10.63
2022-11-17T23:59:07.119Z,12.68
